createdAt,value
2019-05-17T00:02:01.233Z,9.60
2019-05-17T00:04:31.670Z,9.25
2019-05-17T00:07:02.721Z,9.47
2019-05-17T00:09:33.143Z,9.00
2019-05-17T00:12:02.841Z,9.13
2019-05-17T00:14:33.127Z,9.40
2019-05-17T00:17:03.599Z,9.53
2019-05-17T00:19:33.954Z,8.73
2019-05-17T00:22:03.677Z,9.80
2019-05-17T00:24:33.923Z,9.27
2019-05-17T00:27:03.657Z,9.57
2019-05-17T00:29:33.933Z,10.15
2019-05-17T00:32:03.637Z,8.47
2019-05-17T00:34:33.944Z,9.95
2019-05-17T00:37:03.725Z,9.57
2019-05-17T00:39:36.515Z,9.60
2019-05-17T00:42:06.955Z,10.10
2019-05-17T00:44:37.867Z,10.03
2019-05-17T00:47:08.233Z,9.37
2019-05-17T00:49:38.626Z,10.50
2019-05-17T00:52:09.017Z,10.77
2019-05-17T00:54:39.381Z,10.43
2019-05-17T00:57:09.759Z,10.97
2019-05-17T00:59:40.164Z,11.67
2019-05-17T01:02:10.557Z,11.83
2019-05-17T01:04:40.969Z,11.33
2019-05-17T01:07:11.489Z,10.90
2019-05-17T01:09:41.860Z,12.63
2019-05-17T01:12:12.277Z,12.07
2019-05-17T01:14:42.631Z,14.13
2019-05-17T01:17:12.359Z,12.37
2019-05-17T01:19:42.711Z,12.50
2019-05-17T01:22:13.106Z,13.40
2019-05-17T01:24:43.494Z,14.17
2019-05-17T01:27:13.831Z,13.33
2019-05-17T01:29:46.490Z,15.60
2019-05-17T01:32:17.287Z,14.70
2019-05-17T01:34:47.662Z,14.10
2019-05-17T01:37:18.097Z,14.40
2019-05-17T01:39:48.503Z,14.47
2019-05-17T01:42:18.835Z,15.57
2019-05-17T01:44:49.267Z,15.73
2019-05-17T01:47:20.556Z,17.87
2019-05-17T01:49:50.946Z,17.30
2019-05-17T01:52:21.293Z,16.30
2019-05-17T01:54:51.661Z,17.80
2019-05-17T01:57:21.404Z,17.83
2019-05-17T01:59:51.718Z,17.23
2019-05-17T02:02:27.050Z,17.87
2019-05-17T02:04:57.006Z,18.07
2019-05-17T02:07:27.378Z,17.30
2019-05-17T02:09:57.783Z,18.50
2019-05-17T02:12:28.490Z,18.37
2019-05-17T02:14:58.967Z,18.10
2019-05-17T02:17:29.389Z,19.63
2019-05-17T02:19:59.901Z,18.17
2019-05-17T02:22:30.300Z,19.43
2019-05-17T02:25:00.042Z,19.50
2019-05-17T02:27:35.860Z,18.90
2019-05-17T02:30:02.447Z,19.47
2019-05-17T02:32:33.630Z,19.60
2019-05-17T02:35:03.588Z,19.20
2019-05-17T02:37:33.902Z,18.80
2019-05-17T02:40:08.309Z,19.93
2019-05-17T02:42:36.772Z,18.37
2019-05-17T02:45:07.385Z,18.80
2019-05-17T02:47:37.722Z,20.32
2019-05-17T02:50:08.885Z,19.87
2019-05-17T02:52:39.287Z,19.90
2019-05-17T02:55:12.469Z,20.43
2019-05-17T02:57:43.219Z,19.83
2019-05-17T03:00:13.581Z,19.27
2019-05-17T03:02:44.609Z,20.50
2019-05-17T03:05:15.191Z,19.60
2019-05-17T03:07:45.555Z,19.73
2019-05-17T03:10:24.121Z,19.90
2019-05-17T03:12:47.346Z,20.13
2019-05-17T03:15:17.047Z,19.73
2019-05-17T03:17:47.303Z,19.33
2019-05-17T03:20:17.741Z,19.05
2019-05-17T03:22:48.064Z,19.73
2019-05-17T03:25:18.430Z,19.90
2019-05-17T03:27:48.149Z,20.17
2019-05-17T03:30:19.092Z,19.77
2019-05-17T03:32:56.188Z,18.63
2019-05-17T03:35:26.472Z,18.30
2019-05-17T03:37:55.472Z,17.87
2019-05-17T03:41:00.551Z,17.30
2019-05-17T03:42:56.288Z,18.57
2019-05-17T03:45:26.587Z,18.23
2019-05-17T03:47:56.285Z,17.77
2019-05-17T03:50:26.526Z,19.03
2019-05-17T03:52:56.203Z,17.17
2019-05-17T03:55:26.498Z,18.53
2019-05-17T03:57:56.192Z,16.93
2019-05-17T04:00:26.477Z,16.10
2019-05-17T04:02:56.163Z,16.53
2019-05-17T04:05:26.566Z,16.00
2019-05-17T04:07:56.229Z,15.73
2019-05-17T04:10:26.502Z,16.00
2019-05-17T04:12:56.162Z,14.53
2019-05-17T04:15:26.438Z,15.13
2019-05-17T04:17:56.806Z,15.63
2019-05-17T04:20:27.159Z,15.45
2019-05-17T04:22:58.319Z,14.67
2019-05-17T04:25:28.605Z,14.18
2019-05-17T04:27:59.066Z,15.10
2019-05-17T04:30:32.298Z,12.57
2019-05-17T04:33:03.435Z,13.45
2019-05-17T04:35:33.549Z,13.20
2019-05-17T04:38:04.546Z,13.10
2019-05-17T04:40:34.966Z,12.85
2019-05-17T04:43:05.440Z,13.17
2019-05-17T04:45:35.802Z,13.30
2019-05-17T04:48:06.144Z,12.73
2019-05-17T04:50:35.816Z,13.33
2019-05-17T04:53:06.100Z,11.83
2019-05-17T04:55:35.839Z,12.43
2019-05-17T04:58:05.438Z,10.93
2019-05-17T05:00:35.688Z,12.53
2019-05-17T05:03:06.064Z,11.47
2019-05-17T05:05:35.734Z,11.80
2019-05-17T05:08:06.064Z,11.57
2019-05-17T05:10:38.453Z,11.70
2019-05-17T05:13:07.641Z,11.70
2019-05-17T05:15:39.244Z,10.90
2019-05-17T05:18:12.948Z,11.13
2019-05-17T05:20:43.647Z,10.90
2019-05-17T05:23:14.890Z,11.00
2019-05-17T05:25:44.483Z,11.10
2019-05-17T05:28:14.776Z,10.93
2019-05-17T05:30:45.131Z,9.40
2019-05-17T05:33:14.917Z,9.93
2019-05-17T05:35:45.288Z,9.70
2019-05-17T05:38:15.026Z,10.70
2019-05-17T05:40:45.493Z,8.80
2019-05-17T05:43:15.962Z,9.87
2019-05-17T05:45:46.431Z,9.63
2019-05-17T05:48:16.890Z,9.33
2019-05-17T05:50:47.319Z,8.47
2019-05-17T05:53:17.778Z,7.43
2019-05-17T05:55:48.241Z,8.70
2019-05-17T05:58:18.671Z,8.10
2019-05-17T06:00:49.026Z,7.73
2019-05-17T06:03:18.881Z,7.87
2019-05-17T06:05:48.527Z,7.07
2019-05-17T06:08:18.864Z,7.50
2019-05-17T06:10:49.297Z,6.00
2019-05-17T06:13:19.141Z,6.80
2019-05-17T06:15:51.616Z,7.03
2019-05-17T06:18:22.665Z,6.80
2019-05-17T06:20:53.338Z,6.17
2019-05-17T06:23:23.544Z,6.40
2019-05-17T06:25:54.075Z,6.80
2019-05-17T06:28:24.437Z,6.73
2019-05-17T06:30:54.901Z,6.40
2019-05-17T06:33:30.539Z,6.60
2019-05-17T06:35:57.350Z,6.70
2019-05-17T06:38:27.750Z,6.17
2019-05-17T06:40:58.142Z,6.17
2019-05-17T06:43:27.886Z,6.27
2019-05-17T06:45:58.201Z,5.50
2019-05-17T06:48:28.584Z,6.47
2019-05-17T06:50:58.329Z,5.63
2019-05-17T06:53:27.967Z,5.70
2019-05-17T06:55:57.630Z,6.47
2019-05-17T06:58:28.270Z,6.23
2019-05-17T07:00:59.957Z,5.57
2019-05-17T07:03:29.805Z,6.58
2019-05-17T07:06:01.814Z,5.80
2019-05-17T07:08:31.591Z,6.03
2019-05-17T07:11:01.887Z,6.23
2019-05-17T07:13:32.292Z,6.13
2019-05-17T07:16:02.663Z,5.80
2019-05-17T07:18:32.401Z,5.72
2019-05-17T07:21:03.522Z,6.10
2019-05-17T07:23:36.127Z,6.40
2019-05-17T07:26:09.077Z,7.37
2019-05-17T07:28:40.478Z,7.43
2019-05-17T07:31:10.233Z,7.83
2019-05-17T07:33:40.593Z,8.07
2019-05-17T07:36:10.352Z,8.47
2019-05-17T07:38:40.647Z,8.63
2019-05-17T07:41:10.375Z,8.37
2019-05-17T07:43:41.066Z,9.67
2019-05-17T07:46:10.791Z,7.43
2019-05-17T07:48:41.381Z,7.50
2019-05-17T07:51:11.086Z,7.70
2019-05-17T07:53:40.744Z,8.00
2019-05-17T07:56:10.421Z,7.60
2019-05-17T07:58:40.687Z,7.70
2019-05-17T08:01:10.433Z,7.73
2019-05-17T08:03:40.595Z,7.40
2019-05-17T08:06:10.828Z,7.10
2019-05-17T08:08:41.300Z,6.67
2019-05-17T08:11:11.049Z,6.10
2019-05-17T08:13:40.665Z,6.77
2019-05-17T08:16:10.486Z,6.83
2019-05-17T08:18:40.770Z,7.43
2019-05-17T08:21:10.573Z,6.80
2019-05-17T08:23:40.253Z,8.63
2019-05-17T08:26:10.744Z,7.70
2019-05-17T08:28:41.210Z,7.20
2019-05-17T08:31:10.949Z,6.80
2019-05-17T08:33:40.779Z,7.03
2019-05-17T08:36:10.420Z,6.93
2019-05-17T08:38:40.712Z,7.03
2019-05-17T08:41:10.677Z,7.03
2019-05-17T08:43:46.482Z,7.63
2019-05-17T08:46:12.320Z,7.13
2019-05-17T08:48:42.677Z,7.37
2019-05-17T08:51:12.445Z,6.87
2019-05-17T08:53:42.090Z,7.30
2019-05-17T08:56:12.395Z,7.33
2019-05-17T08:58:42.211Z,8.03
2019-05-17T09:01:12.546Z,9.77
2019-05-17T09:03:42.321Z,8.57
2019-05-17T09:06:12.857Z,8.10
2019-05-17T09:08:43.368Z,8.70
2019-05-17T09:11:13.175Z,8.73
2019-05-17T09:13:57.362Z,8.80
2019-05-17T09:16:19.450Z,8.70
2019-05-17T09:18:50.210Z,8.77
2019-05-17T09:21:21.951Z,10.53
2019-05-17T09:23:51.915Z,9.60
2019-05-17T09:26:22.199Z,9.57
2019-05-17T09:28:51.958Z,10.40
2019-05-17T09:31:22.248Z,9.90
2019-05-17T09:33:51.967Z,10.13
2019-05-17T09:36:22.439Z,10.20
2019-05-17T09:38:52.176Z,10.43
2019-05-17T09:41:21.923Z,11.75
2019-05-17T09:43:51.602Z,12.00
2019-05-17T09:46:21.848Z,12.60
2019-05-17T09:48:51.668Z,13.33
2019-05-17T09:51:22.057Z,12.93
2019-05-17T09:53:51.818Z,12.40
2019-05-17T09:56:22.135Z,13.27
2019-05-17T09:58:51.900Z,11.70
2019-05-17T10:01:21.548Z,12.57
2019-05-17T10:03:51.273Z,12.03
2019-05-17T10:06:21.616Z,12.70
2019-05-17T10:08:52.049Z,14.00
2019-05-17T10:11:22.539Z,15.10
2019-05-17T10:13:52.262Z,16.23
2019-05-17T10:16:22.603Z,16.37
2019-05-17T10:18:52.358Z,17.30
2019-05-17T10:21:22.675Z,16.63
2019-05-17T10:23:52.402Z,17.23
2019-05-17T10:26:22.663Z,17.30
2019-05-17T10:28:53.435Z,16.63
2019-05-17T10:31:23.221Z,17.17
2019-05-17T10:33:52.861Z,18.20
2019-05-17T10:36:22.548Z,17.40
2019-05-17T10:38:52.202Z,17.63
2019-05-17T10:41:21.909Z,18.33
2019-05-17T10:43:51.571Z,17.90
2019-05-17T10:46:21.238Z,17.43
2019-05-17T10:48:51.570Z,18.33
2019-05-17T10:51:21.326Z,16.33
2019-05-17T10:53:51.417Z,17.10
2019-05-17T10:56:23.732Z,18.07
2019-05-17T10:58:53.182Z,17.33
2019-05-17T11:01:22.762Z,17.60
2019-05-17T11:03:53.101Z,16.80
2019-05-17T11:06:22.840Z,15.87
2019-05-17T11:08:53.227Z,15.57
2019-05-17T11:11:22.929Z,15.03
2019-05-17T11:13:53.119Z,15.23
2019-05-17T11:16:23.566Z,16.90
2019-05-17T11:18:53.302Z,15.63
2019-05-17T11:21:22.938Z,16.77
2019-05-17T11:23:52.605Z,15.80
2019-05-17T11:26:22.219Z,15.83
2019-05-17T11:28:52.512Z,15.27
2019-05-17T11:31:22.250Z,15.97
2019-05-17T11:33:52.574Z,16.70
2019-05-17T11:36:22.315Z,17.10
2019-05-17T11:38:52.712Z,17.47
2019-05-17T11:41:22.537Z,17.20
2019-05-17T11:43:52.848Z,17.93
2019-05-17T11:46:35.245Z,17.40
2019-05-17T11:48:54.686Z,18.23
2019-05-17T11:51:26.969Z,18.25
2019-05-17T11:53:56.284Z,18.60
2019-05-17T11:56:26.010Z,18.00
2019-05-17T11:58:56.290Z,18.23
2019-05-17T12:01:25.997Z,17.20
2019-05-17T12:03:56.332Z,18.10
2019-05-17T12:06:26.107Z,18.70
2019-05-17T12:08:56.609Z,16.50
2019-05-17T12:11:26.496Z,17.17
2019-05-17T12:13:56.092Z,16.57
2019-05-17T12:16:25.856Z,17.73
2019-05-17T12:18:56.124Z,18.20
2019-05-17T12:21:26.589Z,19.23
2019-05-17T12:23:57.138Z,18.97
2019-05-17T12:26:27.642Z,16.70
2019-05-17T12:28:58.184Z,17.07
2019-05-17T12:31:27.978Z,16.20
2019-05-17T12:33:58.351Z,16.40
2019-05-17T12:36:28.107Z,17.40
2019-05-17T12:38:57.865Z,16.67
2019-05-17T12:41:27.574Z,17.50
2019-05-17T12:43:57.248Z,17.03
2019-05-17T12:46:26.895Z,17.63
2019-05-17T12:48:56.554Z,17.10
2019-05-17T12:51:26.213Z,16.83
2019-05-17T12:53:56.688Z,16.53
2019-05-17T12:56:30.312Z,16.80
2019-05-17T12:59:00.882Z,20.17
2019-05-17T13:01:31.542Z,17.53
2019-05-17T13:04:02.330Z,18.57
2019-05-17T13:06:32.157Z,17.57
2019-05-17T13:09:02.696Z,17.07
2019-05-17T13:11:32.487Z,18.05
2019-05-17T13:14:02.843Z,17.97
2019-05-17T13:16:32.539Z,18.57
2019-05-17T13:19:02.825Z,18.13
2019-05-17T13:21:33.586Z,19.47
2019-05-17T13:24:04.084Z,18.57
2019-05-17T13:26:34.395Z,19.00
2019-05-17T13:29:04.087Z,19.07
2019-05-17T13:31:33.713Z,20.20
2019-05-17T13:34:03.417Z,18.47
2019-05-17T13:36:33.068Z,19.65
2019-05-17T13:39:04.848Z,18.20
2019-05-17T13:41:34.610Z,18.30
2019-05-17T13:44:04.461Z,19.33
2019-05-17T13:46:34.152Z,18.13
2019-05-17T13:49:03.763Z,16.97
2019-05-17T13:51:34.657Z,16.87
2019-05-17T13:54:04.341Z,18.23
2019-05-17T13:56:34.085Z,15.90
2019-05-17T13:59:03.741Z,16.30
2019-05-17T14:01:34.179Z,15.63
2019-05-17T14:04:04.092Z,15.23
2019-05-17T14:06:33.875Z,15.43
2019-05-17T14:09:04.392Z,14.93
2019-05-17T14:11:34.843Z,13.10
2019-05-17T14:14:04.734Z,15.27
2019-05-17T14:16:35.143Z,13.53
2019-05-17T14:19:04.939Z,15.13
2019-05-17T14:21:34.630Z,14.37
2019-05-17T14:24:04.425Z,14.37
2019-05-17T14:26:35.569Z,15.07
2019-05-17T14:29:05.326Z,14.40
2019-05-17T14:31:35.069Z,14.10
2019-05-17T14:34:05.413Z,14.07
2019-05-17T14:36:35.786Z,14.40
2019-05-17T14:39:06.755Z,14.13
2019-05-17T14:41:37.105Z,13.10
2019-05-17T14:44:06.864Z,13.77
2019-05-17T14:46:36.622Z,13.03
2019-05-17T14:49:08.528Z,13.70
2019-05-17T14:51:38.248Z,12.37
2019-05-17T14:54:08.631Z,12.80
2019-05-17T14:56:38.445Z,13.07
2019-05-17T14:59:08.800Z,13.57
2019-05-17T15:01:38.673Z,12.53
2019-05-17T15:04:09.471Z,12.90
2019-05-17T15:06:39.960Z,13.32
2019-05-17T15:09:11.704Z,13.23
2019-05-17T15:11:43.200Z,12.93
2019-05-17T15:14:13.593Z,13.10
2019-05-17T15:16:44.105Z,13.77
2019-05-17T15:19:14.529Z,13.07
2019-05-17T15:21:44.271Z,12.50
2019-05-17T15:24:14.549Z,12.80
2019-05-17T15:26:44.305Z,13.87
2019-05-17T15:29:14.596Z,12.93
2019-05-17T15:31:44.857Z,13.33
2019-05-17T15:34:14.474Z,12.53
2019-05-17T15:36:44.171Z,12.80
2019-05-17T15:39:13.820Z,13.47
2019-05-17T15:41:44.148Z,12.23
2019-05-17T15:44:13.853Z,12.73
2019-05-17T15:46:44.124Z,12.57
2019-05-17T15:49:14.489Z,12.10
2019-05-17T15:51:44.558Z,12.57
2019-05-17T15:54:14.278Z,12.83
2019-05-17T15:56:44.810Z,12.57
2019-05-17T15:59:16.620Z,12.60
2019-05-17T16:01:46.594Z,11.93
2019-05-17T16:04:16.315Z,12.77
2019-05-17T16:06:47.083Z,11.13
2019-05-17T16:09:16.773Z,11.50
2019-05-17T16:11:47.200Z,12.23
2019-05-17T16:14:17.009Z,11.77
2019-05-17T16:16:46.708Z,12.53
2019-05-17T16:19:17.073Z,12.87
2019-05-17T16:21:47.652Z,11.60
2019-05-17T16:24:17.426Z,11.90
2019-05-17T16:26:47.921Z,11.83
2019-05-17T16:29:19.530Z,13.10
2019-05-17T16:31:50.002Z,14.40
2019-05-17T16:34:22.015Z,14.10
2019-05-17T16:36:52.491Z,13.60
2019-05-17T16:39:24.024Z,13.90
2019-05-17T16:41:54.746Z,13.93
2019-05-17T16:44:27.463Z,15.10
2019-05-17T16:46:57.302Z,14.80
2019-05-17T16:49:28.585Z,15.57
2019-05-17T16:51:58.377Z,15.00
2019-05-17T16:54:28.066Z,14.93
2019-05-17T16:56:57.736Z,15.50
2019-05-17T16:59:27.404Z,16.47
2019-05-17T17:01:59.761Z,14.87
2019-05-17T17:04:29.542Z,16.12
2019-05-17T17:06:59.264Z,15.70
2019-05-17T17:09:28.982Z,15.57
2019-05-17T17:11:58.700Z,15.43
2019-05-17T17:14:28.319Z,15.88
2019-05-17T17:16:58.042Z,16.20
2019-05-17T17:19:28.503Z,16.60
2019-05-17T17:21:58.268Z,15.67
2019-05-17T17:24:28.542Z,14.93
2019-05-17T17:26:58.251Z,15.03
2019-05-17T17:29:28.647Z,15.47
2019-05-17T17:31:58.654Z,15.90
2019-05-17T17:34:28.337Z,15.95
2019-05-17T17:36:58.088Z,14.47
2019-05-17T17:39:28.447Z,15.40
2019-05-17T17:41:58.225Z,15.10
2019-05-17T17:44:28.546Z,15.60
2019-05-17T17:46:59.142Z,15.30
2019-05-17T17:49:29.578Z,16.00
2019-05-17T17:51:59.399Z,14.93
2019-05-17T17:54:29.078Z,15.70
2019-05-17T17:56:58.716Z,14.70
2019-05-17T17:59:28.341Z,14.50
2019-05-17T18:01:58.027Z,16.53
2019-05-17T18:04:27.745Z,16.40
2019-05-17T18:06:57.440Z,16.60
2019-05-17T18:09:27.152Z,15.73
2019-05-17T18:11:56.777Z,16.57
2019-05-17T18:14:26.447Z,17.47
2019-05-17T18:16:58.981Z,16.13
2019-05-17T18:19:28.660Z,16.67
2019-05-17T18:21:58.372Z,16.27
2019-05-17T18:24:28.698Z,16.73
2019-05-17T18:26:58.454Z,17.27
2019-05-17T18:29:28.106Z,16.87
2019-05-17T18:31:57.777Z,16.80
2019-05-17T18:34:27.422Z,17.27
2019-05-17T18:36:57.198Z,17.33
2019-05-17T18:39:27.541Z,17.90
2019-05-17T18:41:57.964Z,17.07
2019-05-17T18:44:28.422Z,17.60
2019-05-17T18:46:58.163Z,16.47
2019-05-17T18:49:28.630Z,16.83
2019-05-17T18:51:59.018Z,17.47
2019-05-17T18:54:28.834Z,16.87
2019-05-17T18:56:59.099Z,16.50
2019-05-17T18:59:28.862Z,17.85
2019-05-17T19:01:58.939Z,17.43
2019-05-17T19:04:28.670Z,17.47
2019-05-17T19:06:58.922Z,16.97
2019-05-17T19:09:29.399Z,16.20
2019-05-17T19:11:59.843Z,16.87
2019-05-17T19:14:42.088Z,18.57
2019-05-17T19:17:01.844Z,16.57
2019-05-17T19:19:31.705Z,18.23
2019-05-17T19:22:01.505Z,16.67
2019-05-17T19:24:31.115Z,19.20
2019-05-17T19:27:01.427Z,17.60
2019-05-17T19:29:31.850Z,17.80
2019-05-17T19:32:01.611Z,17.43
2019-05-17T19:34:31.223Z,16.47
2019-05-17T19:37:00.994Z,15.60
2019-05-17T19:39:31.266Z,16.27
2019-05-17T19:42:01.665Z,15.43
2019-05-17T19:44:32.197Z,15.97
2019-05-17T19:47:01.979Z,15.77
2019-05-17T19:49:32.279Z,15.77
2019-05-17T19:52:02.793Z,14.23
2019-05-17T19:54:32.522Z,13.43
2019-05-17T19:57:02.808Z,13.37
2019-05-17T19:59:33.173Z,12.73
2019-05-17T20:02:06.424Z,12.90
2019-05-17T20:04:35.532Z,12.70
2019-05-17T20:07:05.256Z,13.27
2019-05-17T20:09:35.533Z,12.80
2019-05-17T20:12:05.894Z,12.33
2019-05-17T20:14:35.593Z,12.37
2019-05-17T20:17:05.889Z,13.77
2019-05-17T20:19:35.562Z,13.65
2019-05-17T20:22:05.187Z,12.97
2019-05-17T20:24:35.600Z,13.17
2019-05-17T20:27:05.960Z,13.13
2019-05-17T20:29:36.343Z,12.40
2019-05-17T20:32:06.065Z,11.00
2019-05-17T20:34:36.346Z,10.67
2019-05-17T20:37:06.083Z,12.87
2019-05-17T20:39:36.325Z,12.60
2019-05-17T20:42:06.034Z,12.83
2019-05-17T20:44:36.268Z,11.37
2019-05-17T20:47:05.978Z,11.30
2019-05-17T20:49:36.223Z,11.27
2019-05-17T20:52:05.956Z,11.40
2019-05-17T20:54:36.308Z,11.20
2019-05-17T20:57:05.981Z,12.63
2019-05-17T20:59:35.565Z,12.03
2019-05-17T21:02:05.167Z,13.17
2019-05-17T21:04:34.742Z,12.97
2019-05-17T21:07:04.363Z,12.13
2019-05-17T21:09:34.682Z,12.87
2019-05-17T21:12:04.389Z,13.37
2019-05-17T21:14:34.027Z,12.97
2019-05-17T21:17:03.664Z,13.07
2019-05-17T21:19:33.973Z,12.93
2019-05-17T21:22:04.359Z,13.60
2019-05-17T21:24:34.739Z,14.50
2019-05-17T21:27:05.070Z,12.53
2019-05-17T21:29:35.357Z,13.63
2019-05-17T21:32:05.203Z,14.87
2019-05-17T21:34:35.469Z,14.40
2019-05-17T21:37:05.242Z,13.37
2019-05-17T21:39:35.554Z,13.67
2019-05-17T21:42:05.270Z,12.50
2019-05-17T21:44:35.656Z,12.30
2019-05-17T21:47:06.034Z,14.13
2019-05-17T21:49:36.654Z,14.57
2019-05-17T21:52:07.111Z,14.33
2019-05-17T21:54:37.518Z,12.23
2019-05-17T21:57:07.870Z,14.50
2019-05-17T21:59:38.242Z,14.20
2019-05-17T22:02:08.688Z,13.87
2019-05-17T22:04:39.052Z,14.57
2019-05-17T22:07:09.406Z,14.83
2019-05-17T22:09:39.839Z,14.70
2019-05-17T22:12:11.310Z,14.53
2019-05-17T22:14:42.191Z,14.70
2019-05-17T22:17:11.851Z,16.73
2019-05-17T22:19:42.233Z,16.10
2019-05-17T22:22:11.948Z,16.70
2019-05-17T22:24:41.598Z,16.93
2019-05-17T22:27:11.250Z,15.63
2019-05-17T22:29:42.798Z,14.60
2019-05-17T22:32:12.540Z,15.30
2019-05-17T22:34:42.141Z,13.30
2019-05-17T22:37:11.812Z,14.10
2019-05-17T22:39:42.088Z,13.13
2019-05-17T22:42:12.420Z,13.43
2019-05-17T22:44:42.780Z,15.87
2019-05-17T22:47:13.130Z,13.87
2019-05-17T22:49:43.496Z,13.93
2019-05-17T22:52:13.848Z,14.57
2019-05-17T22:54:44.207Z,15.23
2019-05-17T22:57:14.555Z,13.47
2019-05-17T22:59:44.917Z,14.53
2019-05-17T23:02:14.599Z,14.50
2019-05-17T23:04:44.865Z,15.10
2019-05-17T23:07:15.239Z,14.40
2019-05-17T23:09:45.653Z,14.40
2019-05-17T23:12:16.392Z,15.80
2019-05-17T23:14:46.732Z,15.33
2019-05-17T23:17:16.440Z,15.50
2019-05-17T23:19:46.712Z,14.87
2019-05-17T23:22:17.066Z,16.03
2019-05-17T23:24:47.443Z,15.87
2019-05-17T23:27:18.039Z,15.87
2019-05-17T23:29:48.430Z,16.07
2019-05-17T23:32:19.478Z,15.23
2019-05-17T23:34:49.849Z,15.17
2019-05-17T23:37:19.568Z,16.87
2019-05-17T23:39:49.845Z,14.80
2019-05-17T23:42:20.196Z,16.20
2019-05-17T23:44:50.554Z,15.47
2019-05-17T23:47:21.190Z,15.20
2019-05-17T23:49:51.478Z,14.00
2019-05-17T23:52:21.831Z,14.90
2019-05-17T23:54:52.226Z,15.57
2019-05-17T23:57:22.605Z,14.43
2019-05-17T23:59:52.970Z,16.83
